createdAt,value
2022-11-09T00:00:08.872Z,6.23
2022-11-09T00:01:08.862Z,6.23
2022-11-09T00:02:08.860Z,6.23
2022-11-09T00:03:08.833Z,6.23
2022-11-09T00:04:08.831Z,6.22
2022-11-09T00:05:08.896Z,6.22
2022-11-09T00:06:08.806Z,6.20
2022-11-09T00:07:09.057Z,6.19
2022-11-09T00:08:08.803Z,6.17
2022-11-09T00:09:08.785Z,6.15
2022-11-09T00:10:08.798Z,6.13
2022-11-09T00:11:08.877Z,6.10
2022-11-09T00:12:08.748Z,6.09
2022-11-09T00:13:08.773Z,6.08
2022-11-09T00:14:08.732Z,6.08
2022-11-09T00:15:08.717Z,6.07
2022-11-09T00:16:08.706Z,6.07
2022-11-09T00:17:08.795Z,6.07
2022-11-09T00:18:08.700Z,6.08
2022-11-09T00:19:08.687Z,6.08
2022-11-09T00:20:08.666Z,6.09
2022-11-09T00:21:08.716Z,6.09
2022-11-09T00:22:08.696Z,6.08
2022-11-09T00:23:08.642Z,6.08
2022-11-09T00:24:08.634Z,6.08
2022-11-09T00:25:08.672Z,6.08
2022-11-09T00:26:08.629Z,6.08
2022-11-09T00:27:08.656Z,6.08
2022-11-09T00:28:08.604Z,6.09
2022-11-09T00:29:08.583Z,6.09
2022-11-09T00:30:08.575Z,6.09
2022-11-09T00:31:08.558Z,6.10
2022-11-09T00:32:08.620Z,6.11
2022-11-09T00:33:08.543Z,6.10
2022-11-09T00:34:08.538Z,6.09
2022-11-09T00:35:08.547Z,6.08
2022-11-09T00:36:08.520Z,6.08
2022-11-09T00:37:08.497Z,6.07
2022-11-09T00:38:08.632Z,6.07
2022-11-09T00:39:08.518Z,6.07
2022-11-09T00:40:08.502Z,6.07
2022-11-09T00:41:08.500Z,6.07
2022-11-09T00:42:08.453Z,6.07
2022-11-09T00:43:08.500Z,6.08
2022-11-09T00:44:08.453Z,6.09
2022-11-09T00:45:08.473Z,6.10
2022-11-09T00:46:08.534Z,6.12
2022-11-09T00:47:08.410Z,6.14
2022-11-09T00:48:08.460Z,6.16
2022-11-09T00:49:08.407Z,6.18
2022-11-09T00:50:08.384Z,6.19
2022-11-09T00:51:08.412Z,6.21
2022-11-09T00:52:08.374Z,6.23
2022-11-09T00:53:08.350Z,6.25
2022-11-09T00:54:08.399Z,6.26
2022-11-09T00:55:08.474Z,6.26
2022-11-09T00:56:08.373Z,6.25
2022-11-09T00:57:08.347Z,6.24
2022-11-09T00:58:08.324Z,6.22
2022-11-09T00:59:08.296Z,6.19
2022-11-09T01:00:08.303Z,6.17
2022-11-09T01:01:08.373Z,6.15
2022-11-09T01:02:08.315Z,6.13
2022-11-09T01:03:08.246Z,6.11
2022-11-09T01:04:08.252Z,6.09
2022-11-09T01:05:08.277Z,6.07
2022-11-09T01:06:08.291Z,6.06
2022-11-09T01:07:08.351Z,6.05
2022-11-09T01:08:08.276Z,6.04
2022-11-09T01:09:08.240Z,6.02
2022-11-09T01:10:08.189Z,6.01
2022-11-09T01:11:08.219Z,6.00
2022-11-09T01:12:08.172Z,5.98
2022-11-09T01:13:08.160Z,5.97
2022-11-09T01:14:08.156Z,5.96
2022-11-09T01:15:08.177Z,5.95
2022-11-09T01:16:08.127Z,5.94
2022-11-09T01:17:08.107Z,5.92
2022-11-09T01:18:08.112Z,5.89
2022-11-09T01:19:08.095Z,5.86
2022-11-09T01:20:08.091Z,5.82
2022-11-09T01:21:08.153Z,5.79
2022-11-09T01:22:08.064Z,5.75
2022-11-09T01:23:08.090Z,5.72
2022-11-09T01:24:08.100Z,5.68
2022-11-09T01:25:08.027Z,5.65
2022-11-09T01:26:08.068Z,5.61
2022-11-09T01:27:08.021Z,5.58
2022-11-09T01:28:08.051Z,5.55
2022-11-09T01:29:08.036Z,5.52
2022-11-09T01:30:08.007Z,5.50
2022-11-09T01:31:07.987Z,5.49
2022-11-09T01:32:08.019Z,5.47
2022-11-09T01:33:08.003Z,5.46
2022-11-09T01:34:07.969Z,5.45
2022-11-09T01:35:07.957Z,5.45
2022-11-09T01:36:07.932Z,5.44
2022-11-09T01:37:07.919Z,5.44
2022-11-09T01:38:07.911Z,5.44
2022-11-09T01:39:07.968Z,5.44
2022-11-09T01:40:08.001Z,5.45
2022-11-09T01:41:07.874Z,5.46
2022-11-09T01:42:07.880Z,5.46
2022-11-09T01:43:07.933Z,5.47
2022-11-09T01:44:07.847Z,5.48
2022-11-09T01:45:07.875Z,5.49
2022-11-09T01:46:07.916Z,5.50
2022-11-09T01:47:07.821Z,5.52
2022-11-09T01:48:07.813Z,5.53
2022-11-09T01:49:07.859Z,5.54
2022-11-09T01:50:07.797Z,5.56
2022-11-09T01:51:07.818Z,5.58
2022-11-09T01:52:07.782Z,5.60
2022-11-09T01:53:07.838Z,5.62
2022-11-09T01:54:07.750Z,5.65
2022-11-09T01:55:07.755Z,5.67
2022-11-09T01:56:07.773Z,5.70
2022-11-09T01:57:07.727Z,5.72
2022-11-09T01:58:07.741Z,5.76
2022-11-09T01:59:07.843Z,5.80
2022-11-09T02:00:07.767Z,5.83
2022-11-09T02:02:25.481Z,7.20
2022-11-09T02:03:26.447Z,6.74
2022-11-09T02:04:26.386Z,6.48
2022-11-09T02:05:26.395Z,6.34
2022-11-09T02:06:26.561Z,6.27
2022-11-09T02:07:26.373Z,6.24
2022-11-09T02:08:26.393Z,6.23
2022-11-09T02:09:26.426Z,6.25
2022-11-09T02:10:26.356Z,6.29
2022-11-09T02:11:26.354Z,6.36
2022-11-09T02:12:26.386Z,6.43
2022-11-09T02:13:26.584Z,6.47
2022-11-09T02:14:26.337Z,6.49
2022-11-09T02:15:26.343Z,6.49
2022-11-09T02:16:26.376Z,6.47
2022-11-09T02:17:26.245Z,6.42
2022-11-09T02:18:26.344Z,6.36
2022-11-09T02:19:26.227Z,6.29
2022-11-09T02:20:26.290Z,6.21
2022-11-09T02:21:26.247Z,6.16
2022-11-09T02:22:26.212Z,6.11
2022-11-09T02:23:26.190Z,6.08
2022-11-09T02:24:26.267Z,6.06
2022-11-09T02:25:26.196Z,6.07
2022-11-09T02:26:26.204Z,6.09
2022-11-09T02:27:26.157Z,6.12
2022-11-09T02:28:26.148Z,6.17
2022-11-09T02:29:26.142Z,6.22
2022-11-09T02:30:26.123Z,6.26
2022-11-09T02:31:26.166Z,6.29
2022-11-09T02:32:32.599Z,6.32
2022-11-09T02:33:26.089Z,6.35
2022-11-09T02:34:26.117Z,6.37
2022-11-09T02:35:26.099Z,6.37
2022-11-09T02:36:26.123Z,6.36
2022-11-09T02:37:26.089Z,6.33
2022-11-09T02:38:26.090Z,6.30
2022-11-09T02:39:26.050Z,6.27
2022-11-09T02:40:26.071Z,6.23
2022-11-09T02:41:26.010Z,6.20
2022-11-09T02:42:25.998Z,6.16
2022-11-09T02:43:26.011Z,6.11
2022-11-09T02:44:26.004Z,6.07
2022-11-09T02:45:26.020Z,6.03
2022-11-09T02:46:25.982Z,5.98
2022-11-09T02:47:25.944Z,5.94
2022-11-09T02:48:25.941Z,5.89
2022-11-09T02:49:25.927Z,5.85
2022-11-09T02:50:25.930Z,5.82
2022-11-09T02:51:25.969Z,5.79
2022-11-09T02:52:25.896Z,5.76
2022-11-09T02:53:25.950Z,5.74
2022-11-09T02:54:25.881Z,5.71
2022-11-09T02:55:25.909Z,5.69
2022-11-09T02:56:25.862Z,5.68
2022-11-09T02:57:25.869Z,5.66
2022-11-09T02:58:25.891Z,5.64
2022-11-09T02:59:25.848Z,5.63
2022-11-09T03:00:25.818Z,5.61
2022-11-09T03:01:25.879Z,5.60
2022-11-09T03:02:25.799Z,5.58
2022-11-09T03:03:25.846Z,5.56
2022-11-09T03:04:25.776Z,5.55
2022-11-09T03:05:25.768Z,5.53
2022-11-09T03:06:25.819Z,5.51
2022-11-09T03:07:25.840Z,5.49
2022-11-09T03:08:25.755Z,5.48
2022-11-09T03:09:25.723Z,5.46
2022-11-09T03:10:25.761Z,5.45
2022-11-09T03:11:25.703Z,5.43
2022-11-09T03:12:25.700Z,5.42
2022-11-09T03:13:25.754Z,5.40
2022-11-09T03:14:25.717Z,5.38
2022-11-09T03:15:25.674Z,5.37
2022-11-09T03:16:25.669Z,5.36
2022-11-09T03:17:25.641Z,5.37
2022-11-09T03:18:25.643Z,5.37
2022-11-09T03:19:25.693Z,5.38
2022-11-09T03:20:25.627Z,5.39
2022-11-09T03:21:25.609Z,5.41
2022-11-09T03:22:25.605Z,5.42
2022-11-09T03:23:25.590Z,5.43
2022-11-09T03:24:25.587Z,5.45
2022-11-09T03:25:25.657Z,5.49
2022-11-09T03:26:25.582Z,5.54
2022-11-09T03:27:25.550Z,5.59
2022-11-09T03:28:25.555Z,5.64
2022-11-09T03:29:25.613Z,5.67
2022-11-09T03:30:25.586Z,5.69
2022-11-09T03:31:25.519Z,5.69
2022-11-09T03:32:25.509Z,5.66
2022-11-09T03:33:25.494Z,5.62
2022-11-09T03:34:25.505Z,5.59
2022-11-09T03:35:25.466Z,5.57
2022-11-09T03:36:25.502Z,5.56
2022-11-09T03:37:25.497Z,5.57
2022-11-09T03:38:25.449Z,5.61
2022-11-09T03:39:25.438Z,5.65
2022-11-09T03:40:25.483Z,5.68
2022-11-09T03:41:25.407Z,5.69
2022-11-09T03:42:25.404Z,5.68
2022-11-09T03:43:25.396Z,5.67
2022-11-09T03:44:25.409Z,5.66
2022-11-09T03:45:25.380Z,5.65
2022-11-09T03:46:25.430Z,5.66
2022-11-09T03:47:25.354Z,5.67
2022-11-09T03:48:25.347Z,5.68
2022-11-09T03:49:25.345Z,5.70
2022-11-09T03:50:25.395Z,5.74
2022-11-09T03:51:25.325Z,5.81
2022-11-09T03:52:25.311Z,5.89
2022-11-09T03:53:25.299Z,6.00
2022-11-09T03:54:25.303Z,6.12
2022-11-09T03:55:25.284Z,6.22
2022-11-09T03:56:25.314Z,6.29
2022-11-09T03:57:25.301Z,6.35
2022-11-09T03:58:25.305Z,6.39
2022-11-09T03:59:25.234Z,6.42
2022-11-09T04:00:25.228Z,6.45
2022-11-09T04:01:25.295Z,6.48
2022-11-09T04:02:25.253Z,6.51
2022-11-09T04:03:25.195Z,6.54
2022-11-09T04:04:25.190Z,6.57
2022-11-09T04:05:25.172Z,6.58
2022-11-09T04:06:25.212Z,6.59
2022-11-09T04:07:25.151Z,6.59
2022-11-09T04:08:25.140Z,6.61
2022-11-09T04:09:25.140Z,6.63
2022-11-09T04:10:25.122Z,6.66
2022-11-09T04:11:25.158Z,6.69
2022-11-09T04:12:25.211Z,6.72
2022-11-09T04:13:25.093Z,6.74
2022-11-09T04:14:25.128Z,6.77
2022-11-09T04:15:25.090Z,6.79
2022-11-09T04:16:25.076Z,6.82
2022-11-09T04:17:25.065Z,6.85
2022-11-09T04:18:25.038Z,6.88
2022-11-09T04:19:25.086Z,6.91
2022-11-09T04:20:25.021Z,6.93
2022-11-09T04:21:25.020Z,6.94
2022-11-09T04:22:25.049Z,6.94
2022-11-09T04:23:25.003Z,6.93
2022-11-09T04:24:24.985Z,6.91
2022-11-09T04:25:25.060Z,6.88
2022-11-09T04:26:24.965Z,6.86
2022-11-09T04:27:24.953Z,6.87
2022-11-09T04:28:24.991Z,6.90
2022-11-09T04:29:24.941Z,6.93
2022-11-09T04:30:24.926Z,6.95
2022-11-09T04:31:28.034Z,6.95
2022-11-09T04:32:24.930Z,6.95
2022-11-09T04:33:24.937Z,6.97
2022-11-09T04:34:24.929Z,7.00
2022-11-09T04:35:24.984Z,7.04
2022-11-09T04:36:24.868Z,7.07
2022-11-09T04:37:24.931Z,7.08
2022-11-09T04:38:24.909Z,7.09
2022-11-09T04:39:24.853Z,7.10
2022-11-09T04:40:24.876Z,7.10
2022-11-09T04:41:24.820Z,7.10
2022-11-09T04:42:24.818Z,7.09
2022-11-09T04:43:24.840Z,7.08
2022-11-09T04:44:24.784Z,7.06
2022-11-09T04:45:24.824Z,7.04
2022-11-09T04:46:24.811Z,7.03
2022-11-09T04:47:24.763Z,7.02
2022-11-09T04:48:24.757Z,7.01
2022-11-09T04:49:24.783Z,6.99
2022-11-09T04:50:24.777Z,6.99
2022-11-09T04:51:24.716Z,6.99
2022-11-09T04:52:24.712Z,7.03
2022-11-09T04:53:25.256Z,7.11
2022-11-09T04:54:24.691Z,7.26
2022-11-09T04:55:24.737Z,7.44
2022-11-09T04:56:24.730Z,7.62
2022-11-09T04:57:24.654Z,7.80
2022-11-09T04:58:25.190Z,7.93
2022-11-09T04:59:24.679Z,8.03
2022-11-09T05:00:24.628Z,8.11
2022-11-09T05:01:24.616Z,8.17
2022-11-09T05:02:24.660Z,8.20
2022-11-09T05:03:24.680Z,8.23
2022-11-09T05:04:24.601Z,8.26
2022-11-09T05:05:24.592Z,8.30
2022-11-09T05:06:24.615Z,8.37
2022-11-09T05:07:24.601Z,8.44
2022-11-09T05:08:24.563Z,8.52
2022-11-09T05:09:24.585Z,8.59
2022-11-09T05:10:24.615Z,8.66
2022-11-09T05:11:24.576Z,8.72
2022-11-09T05:12:24.509Z,8.76
2022-11-09T05:13:24.506Z,8.78
2022-11-09T05:14:24.516Z,8.78
2022-11-09T05:15:24.474Z,8.74
2022-11-09T05:16:24.541Z,8.67
2022-11-09T05:17:24.525Z,8.59
2022-11-09T05:18:24.447Z,8.50
2022-11-09T05:19:24.484Z,8.41
2022-11-09T05:20:24.435Z,8.32
2022-11-09T05:21:24.442Z,8.24
2022-11-09T05:22:24.429Z,8.18
2022-11-09T05:23:24.651Z,8.14
2022-11-09T05:24:24.431Z,8.11
2022-11-09T05:25:24.390Z,8.09
2022-11-09T05:26:24.461Z,8.07
2022-11-09T05:27:24.361Z,8.08
2022-11-09T05:28:24.350Z,8.11
2022-11-09T05:29:24.450Z,8.12
2022-11-09T05:30:24.328Z,8.13
2022-11-09T05:31:24.435Z,8.13
2022-11-09T05:32:24.352Z,8.15
2022-11-09T05:33:24.324Z,8.15
2022-11-09T05:34:24.325Z,8.14
2022-11-09T05:35:24.338Z,8.11
2022-11-09T05:36:24.339Z,8.06
2022-11-09T05:38:46.444Z,9.03
2022-11-09T05:39:36.938Z,8.53
2022-11-09T05:40:36.938Z,8.19
2022-11-09T05:42:21.320Z,7.96
2022-11-09T05:42:36.955Z,7.80
2022-11-09T05:43:36.900Z,7.68
2022-11-09T05:44:36.897Z,7.59
2022-11-09T05:45:42.629Z,7.51
2022-11-09T05:46:36.909Z,7.44
2022-11-09T05:47:37.016Z,7.39
2022-11-09T05:48:36.913Z,7.34
2022-11-09T05:49:36.838Z,7.30
2022-11-09T05:50:36.829Z,7.27
2022-11-09T05:51:36.783Z,7.25
2022-11-09T05:52:36.811Z,7.23
2022-11-09T05:53:36.812Z,7.23
2022-11-09T05:54:36.776Z,7.24
2022-11-09T05:55:36.777Z,7.26
2022-11-09T05:56:36.739Z,7.30
2022-11-09T05:57:36.712Z,7.33
2022-11-09T05:58:36.744Z,7.37
2022-11-09T05:59:36.754Z,7.40
2022-11-09T06:00:36.690Z,7.43
2022-11-09T06:01:36.678Z,7.45
2022-11-09T06:02:36.719Z,7.48
2022-11-09T06:03:36.715Z,7.50
2022-11-09T06:04:36.667Z,7.52
2022-11-09T06:05:36.703Z,7.54
2022-11-09T06:06:36.682Z,7.56
2022-11-09T06:07:36.617Z,7.57
2022-11-09T06:08:36.610Z,7.57
2022-11-09T06:09:36.668Z,7.57
2022-11-09T06:10:36.577Z,7.56
2022-11-09T06:11:36.624Z,7.54
2022-11-09T06:12:36.579Z,7.51
2022-11-09T06:13:36.596Z,7.48
2022-11-09T06:14:36.549Z,7.44
2022-11-09T06:15:36.600Z,7.39
2022-11-09T06:16:36.569Z,7.33
2022-11-09T06:17:36.547Z,7.28
2022-11-09T06:18:36.543Z,7.24
2022-11-09T06:19:36.625Z,7.19
2022-11-09T06:20:36.498Z,7.16
2022-11-09T06:21:36.489Z,7.13
2022-11-09T06:22:36.531Z,7.11
2022-11-09T06:23:36.540Z,7.09
2022-11-09T06:24:36.498Z,7.08
2022-11-09T06:25:36.432Z,7.07
2022-11-09T06:26:36.445Z,7.07
2022-11-09T06:27:36.435Z,7.07
2022-11-09T06:28:36.456Z,7.06
2022-11-09T06:29:36.438Z,7.05
2022-11-09T06:30:36.431Z,7.03
2022-11-09T06:31:36.466Z,7.02
2022-11-09T06:32:36.370Z,7.01
2022-11-09T06:33:36.419Z,7.01
2022-11-09T06:34:36.358Z,7.02
2022-11-09T06:35:36.390Z,7.02
2022-11-09T06:36:36.323Z,7.03
2022-11-09T06:37:36.356Z,7.04
2022-11-09T06:38:36.311Z,7.05
2022-11-09T06:39:36.304Z,7.04
2022-11-09T06:40:36.321Z,7.04
2022-11-09T06:41:36.277Z,7.03
2022-11-09T06:42:36.310Z,7.01
2022-11-09T06:43:36.284Z,6.99
2022-11-09T06:44:36.252Z,6.97
2022-11-09T06:45:36.236Z,6.93
2022-11-09T06:46:36.294Z,6.89
2022-11-09T06:47:36.219Z,6.86
2022-11-09T06:48:36.319Z,6.81
2022-11-09T06:49:36.257Z,6.77
2022-11-09T06:50:36.190Z,6.73
2022-11-09T06:51:36.220Z,6.68
2022-11-09T06:52:36.187Z,6.63
2022-11-09T06:53:36.225Z,6.58
2022-11-09T06:54:36.222Z,6.54
2022-11-09T06:55:36.149Z,6.50
2022-11-09T06:56:36.126Z,6.47
2022-11-09T06:57:36.147Z,6.44
2022-11-09T06:58:36.203Z,6.42
2022-11-09T06:59:36.116Z,6.40
2022-11-09T07:00:36.095Z,6.36
2022-11-09T07:01:36.133Z,6.34
2022-11-09T07:02:36.149Z,6.32
2022-11-09T07:03:36.054Z,6.32
2022-11-09T07:04:36.058Z,6.32
2022-11-09T07:05:36.173Z,6.34
2022-11-09T07:06:36.109Z,6.35
2022-11-09T07:07:36.049Z,6.38
2022-11-09T07:08:36.010Z,6.40
2022-11-09T07:09:36.137Z,6.43
2022-11-09T07:10:36.893Z,6.45
2022-11-09T07:11:35.972Z,6.48
2022-11-09T07:12:35.993Z,6.51
2022-11-09T07:13:35.971Z,6.55
2022-11-09T07:14:35.948Z,6.59
2022-11-09T07:15:35.934Z,6.62
2022-11-09T07:16:35.967Z,6.66
2022-11-09T07:17:36.044Z,6.69
2022-11-09T07:18:35.910Z,6.72
2022-11-09T07:19:35.997Z,6.75
2022-11-09T07:20:35.894Z,6.78
2022-11-09T07:21:35.995Z,6.82
2022-11-09T07:22:35.942Z,6.86
2022-11-09T07:23:35.854Z,6.92
2022-11-09T07:24:35.843Z,7.00
2022-11-09T07:25:35.847Z,7.10
2022-11-09T07:26:35.836Z,7.21
2022-11-09T07:27:35.863Z,7.36
2022-11-09T07:28:35.849Z,7.54
2022-11-09T07:29:35.816Z,7.71
2022-11-09T07:30:35.831Z,7.86
2022-11-09T07:31:35.799Z,7.96
2022-11-09T07:33:06.880Z,8.02
2022-11-09T07:33:35.773Z,8.05
2022-11-09T07:34:35.855Z,8.08
2022-11-09T07:35:35.744Z,8.14
2022-11-09T07:36:35.788Z,8.19
2022-11-09T07:37:35.725Z,8.26
2022-11-09T07:38:35.714Z,8.33
2022-11-09T07:39:35.707Z,8.40
2022-11-09T07:40:35.725Z,8.47
2022-11-09T07:41:35.678Z,8.54
2022-11-09T07:42:35.723Z,8.60
2022-11-09T07:43:35.686Z,8.65
2022-11-09T07:44:35.645Z,8.69
2022-11-09T07:45:35.649Z,8.75
2022-11-09T07:46:35.646Z,8.83
2022-11-09T07:47:35.660Z,8.89
2022-11-09T07:48:35.654Z,8.92
2022-11-09T07:49:35.612Z,8.93
2022-11-09T07:50:35.646Z,8.93
2022-11-09T07:51:35.653Z,8.91
2022-11-09T07:52:35.650Z,8.89
2022-11-09T07:53:35.595Z,8.85
2022-11-09T07:54:35.605Z,8.82
2022-11-09T07:55:35.551Z,8.80
2022-11-09T07:56:35.538Z,8.79
2022-11-09T07:57:35.540Z,8.79
2022-11-09T07:58:35.574Z,8.80
2022-11-09T07:59:35.530Z,8.84
2022-11-09T08:00:35.496Z,8.86
2022-11-09T08:01:35.537Z,8.87
2022-11-09T08:02:35.473Z,8.88
2022-11-09T08:03:35.508Z,8.89
2022-11-09T08:04:35.481Z,8.90
2022-11-09T08:05:35.437Z,8.91
2022-11-09T08:06:35.515Z,8.91
2022-11-09T08:07:35.419Z,8.91
2022-11-09T08:08:35.445Z,8.93
2022-11-09T08:09:35.465Z,8.95
2022-11-09T08:10:35.442Z,8.97
2022-11-09T08:11:35.453Z,8.97
2022-11-09T08:12:37.194Z,8.97
2022-11-09T08:13:35.925Z,8.98
2022-11-09T08:14:35.352Z,9.01
2022-11-09T08:15:35.348Z,9.04
2022-11-09T08:16:37.901Z,9.10
2022-11-09T08:17:35.362Z,9.16
2022-11-09T08:18:35.364Z,9.24
2022-11-09T08:19:35.307Z,9.33
2022-11-09T08:20:35.364Z,9.40
2022-11-09T08:21:35.279Z,9.47
2022-11-09T08:22:35.305Z,9.53
2022-11-09T08:23:35.275Z,9.60
2022-11-09T08:24:35.253Z,9.69
2022-11-09T08:25:35.265Z,9.78
2022-11-09T08:26:35.276Z,9.84
2022-11-09T08:27:35.249Z,9.88
2022-11-09T08:28:35.271Z,9.90
2022-11-09T08:29:35.218Z,9.92
2022-11-09T08:30:35.275Z,9.94
2022-11-09T08:31:35.186Z,9.96
2022-11-09T08:32:35.179Z,9.99
2022-11-09T08:33:35.202Z,10.03
2022-11-09T08:34:35.199Z,10.08
2022-11-09T08:35:35.166Z,10.11
2022-11-09T08:36:35.124Z,10.11
2022-11-09T08:37:35.165Z,10.10
2022-11-09T08:38:35.129Z,10.11
2022-11-09T08:39:35.100Z,10.14
2022-11-09T08:40:35.155Z,10.17
2022-11-09T08:41:35.090Z,10.21
2022-11-09T08:42:35.125Z,10.25
2022-11-09T08:43:35.084Z,10.29
2022-11-09T08:44:35.056Z,10.32
2022-11-09T08:45:35.077Z,10.36
2022-11-09T08:46:40.849Z,10.39
2022-11-09T08:47:35.065Z,10.42
2022-11-09T08:48:35.022Z,10.44
2022-11-09T08:49:35.002Z,10.45
2022-11-09T08:50:34.997Z,10.46
2022-11-09T08:51:34.982Z,10.49
2022-11-09T08:52:35.019Z,10.51
2022-11-09T08:53:35.075Z,10.52
2022-11-09T08:54:34.946Z,10.52
2022-11-09T08:55:34.937Z,10.51
2022-11-09T08:56:34.935Z,10.50
2022-11-09T08:57:34.927Z,10.48
2022-11-09T08:58:35.000Z,10.48
2022-11-09T08:59:34.903Z,10.49
2022-11-09T09:00:34.943Z,10.51
2022-11-09T09:01:34.976Z,10.51
2022-11-09T09:02:34.908Z,10.50
2022-11-09T09:03:34.928Z,10.51
2022-11-09T09:04:34.871Z,10.53
2022-11-09T09:05:34.849Z,10.56
2022-11-09T09:06:34.925Z,10.56
2022-11-09T09:07:34.821Z,10.56
2022-11-09T09:08:34.896Z,10.57
2022-11-09T09:09:34.800Z,10.56
2022-11-09T09:10:34.791Z,10.55
2022-11-09T09:11:34.833Z,10.57
2022-11-09T09:12:34.766Z,10.59
2022-11-09T09:13:37.863Z,10.62
2022-11-09T09:14:34.758Z,10.64
2022-11-09T09:15:34.748Z,10.65
2022-11-09T09:16:34.770Z,10.63
2022-11-09T09:17:34.727Z,10.58
2022-11-09T09:18:34.704Z,10.52
2022-11-09T09:19:34.782Z,10.46
2022-11-09T09:20:34.756Z,10.41
2022-11-09T09:21:34.709Z,10.37
2022-11-09T09:22:34.758Z,10.34
2022-11-09T09:23:34.670Z,10.33
2022-11-09T09:24:34.697Z,10.32
2022-11-09T09:25:34.699Z,10.29
2022-11-09T09:26:34.634Z,10.26
2022-11-09T09:27:34.615Z,10.24
2022-11-09T09:28:34.650Z,10.23
2022-11-09T09:29:34.614Z,10.25
2022-11-09T09:30:34.638Z,10.29
2022-11-09T09:31:34.639Z,10.33
2022-11-09T09:32:34.577Z,10.36
2022-11-09T09:33:34.558Z,10.40
2022-11-09T09:34:34.555Z,10.45
2022-11-09T09:35:34.543Z,10.49
2022-11-09T09:36:34.531Z,10.52
2022-11-09T09:37:34.582Z,10.54
2022-11-09T09:38:34.510Z,10.57
2022-11-09T09:39:34.533Z,10.58
2022-11-09T09:40:34.493Z,10.57
2022-11-09T09:41:34.530Z,10.54
2022-11-09T09:42:34.466Z,10.51
2022-11-09T09:43:36.183Z,10.49
2022-11-09T09:44:34.451Z,10.46
2022-11-09T09:45:34.470Z,10.43
2022-11-09T09:46:34.511Z,10.41
2022-11-09T09:47:34.512Z,10.40
2022-11-09T09:48:34.485Z,10.40
2022-11-09T09:49:34.484Z,10.41
2022-11-09T09:50:34.526Z,10.43
2022-11-09T09:51:34.378Z,10.45
2022-11-09T09:52:34.385Z,10.48
2022-11-09T09:53:34.417Z,10.50
2022-11-09T09:54:34.347Z,10.51
2022-11-09T09:55:34.384Z,10.53
2022-11-09T09:56:34.337Z,10.55
2022-11-09T09:57:39.010Z,10.57
2022-11-09T09:58:34.333Z,10.59
2022-11-09T09:59:34.300Z,10.60
2022-11-09T10:00:34.404Z,10.62
2022-11-09T10:01:34.330Z,10.64
2022-11-09T10:02:34.467Z,10.70
2022-11-09T10:03:34.252Z,10.76
2022-11-09T10:04:34.298Z,10.83
2022-11-09T10:05:34.239Z,10.89
2022-11-09T10:06:34.345Z,10.94
2022-11-09T10:07:34.229Z,10.98
2022-11-09T10:08:34.291Z,11.00
2022-11-09T10:09:34.199Z,11.00
2022-11-09T10:10:34.225Z,11.01
2022-11-09T10:11:34.226Z,11.02
2022-11-09T10:12:34.167Z,11.04
2022-11-09T10:13:34.153Z,11.07
2022-11-09T10:14:34.160Z,11.11
2022-11-09T10:15:34.138Z,11.15
2022-11-09T10:16:34.182Z,11.16
2022-11-09T10:17:34.176Z,11.19
2022-11-09T10:18:34.104Z,11.24
2022-11-09T10:19:34.117Z,11.32
2022-11-09T10:20:34.101Z,11.41
2022-11-09T10:21:34.071Z,11.50
2022-11-09T10:22:34.130Z,11.57
2022-11-09T10:23:34.117Z,11.62
2022-11-09T10:24:34.046Z,11.66
2022-11-09T10:26:34.088Z,11.69
2022-11-09T10:27:34.115Z,11.71
2022-11-09T10:28:47.928Z,11.71
2022-11-09T10:29:34.013Z,11.71
2022-11-09T10:30:34.007Z,11.72
2022-11-09T10:31:34.063Z,11.75
2022-11-09T10:32:33.966Z,11.80
2022-11-09T10:33:33.945Z,11.89
2022-11-09T10:34:33.979Z,11.99
2022-11-09T10:35:33.976Z,12.08
2022-11-09T10:36:33.923Z,12.18
2022-11-09T10:37:33.968Z,12.26
2022-11-09T10:38:33.938Z,12.27
2022-11-09T10:39:33.897Z,12.27
2022-11-09T10:40:33.887Z,12.26
2022-11-09T10:41:33.880Z,12.23
2022-11-09T10:42:33.923Z,12.23
2022-11-09T10:43:33.903Z,12.24
2022-11-09T10:44:33.971Z,12.26
2022-11-09T10:45:33.884Z,12.31
2022-11-09T10:46:33.828Z,12.36
2022-11-09T10:47:33.808Z,12.39
2022-11-09T10:48:33.801Z,12.40
2022-11-09T10:49:33.831Z,12.40
2022-11-09T10:50:33.786Z,12.46
2022-11-09T10:51:33.867Z,12.54
2022-11-09T10:52:33.819Z,12.59
2022-11-09T10:53:33.755Z,12.67
2022-11-09T10:54:33.750Z,12.79
2022-11-09T10:55:33.740Z,12.92
2022-11-09T10:56:47.234Z,13.01
2022-11-09T10:57:33.770Z,13.02
2022-11-09T10:58:33.841Z,12.99
2022-11-09T10:59:33.689Z,12.95
2022-11-09T11:00:33.683Z,12.91
2022-11-09T11:01:33.734Z,12.85
2022-11-09T11:02:33.667Z,12.79
2022-11-09T11:03:33.772Z,12.73
2022-11-09T11:04:33.642Z,12.69
2022-11-09T11:05:33.681Z,12.66
2022-11-09T11:06:33.669Z,12.63
2022-11-09T11:07:33.642Z,12.61
2022-11-09T11:08:33.651Z,12.61
2022-11-09T11:09:33.617Z,12.60
2022-11-09T11:10:33.635Z,12.59
2022-11-09T11:11:35.629Z,12.57
2022-11-09T11:12:33.602Z,12.56
2022-11-09T11:13:33.662Z,12.54
2022-11-09T11:14:33.584Z,12.52
2022-11-09T11:15:33.613Z,12.51
2022-11-09T11:16:33.525Z,12.51
2022-11-09T11:17:33.510Z,12.52
2022-11-09T11:18:33.501Z,12.54
2022-11-09T11:19:33.491Z,12.54
2022-11-09T11:20:33.563Z,12.55
2022-11-09T11:21:33.483Z,12.56
2022-11-09T11:22:33.514Z,12.55
2022-11-09T11:23:33.554Z,12.56
2022-11-09T11:24:33.469Z,12.57
2022-11-09T11:25:33.433Z,12.57
2022-11-09T11:26:33.447Z,12.57
2022-11-09T11:27:33.407Z,12.57
2022-11-09T11:28:33.401Z,12.56
2022-11-09T11:29:33.404Z,12.55
2022-11-09T11:30:33.408Z,12.55
2022-11-09T11:31:33.373Z,12.55
2022-11-09T11:32:33.392Z,12.54
2022-11-09T11:33:33.350Z,12.53
2022-11-09T11:34:58.497Z,12.54
2022-11-09T11:35:33.345Z,12.57
2022-11-09T11:36:33.371Z,12.59
2022-11-09T11:37:33.306Z,12.61
2022-11-09T11:38:33.311Z,12.63
2022-11-09T11:39:33.286Z,12.64
2022-11-09T11:40:33.314Z,12.64
2022-11-09T11:41:33.319Z,12.64
2022-11-09T11:42:33.268Z,12.65
2022-11-09T11:43:33.287Z,12.66
2022-11-09T11:44:33.249Z,12.66
2022-11-09T11:45:40.711Z,12.66
2022-11-09T11:46:33.225Z,12.66
2022-11-09T11:47:33.283Z,12.67
2022-11-09T11:48:33.234Z,12.68
2022-11-09T11:49:33.217Z,12.68
2022-11-09T11:50:33.195Z,12.69
2022-11-09T11:51:33.182Z,12.73
2022-11-09T11:52:33.175Z,12.76
2022-11-09T11:53:33.276Z,12.78
2022-11-09T11:54:33.183Z,12.78
2022-11-09T11:55:33.165Z,12.79
2022-11-09T11:56:33.123Z,12.81
2022-11-09T11:57:33.105Z,12.84
2022-11-09T11:58:33.098Z,12.88
2022-11-09T11:59:33.212Z,12.93
2022-11-09T12:00:33.163Z,12.99
2022-11-09T12:01:33.090Z,13.01
2022-11-09T12:02:33.138Z,12.99
2022-11-09T12:03:33.078Z,13.00
2022-11-09T12:04:33.049Z,13.01
2022-11-09T12:05:33.046Z,13.02
2022-11-09T12:06:33.110Z,13.03
2022-11-09T12:07:33.032Z,13.04
2022-11-09T12:08:33.001Z,13.04
2022-11-09T12:09:33.011Z,13.04
2022-11-09T12:10:33.028Z,13.02
2022-11-09T12:11:32.973Z,13.00
2022-11-09T12:12:32.983Z,12.97
2022-11-09T12:13:33.033Z,12.95
2022-11-09T12:14:32.970Z,12.95
2022-11-09T12:15:32.972Z,12.96
2022-11-09T12:16:32.956Z,12.97
2022-11-09T12:17:33.002Z,12.98
2022-11-09T12:18:32.907Z,12.98
2022-11-09T12:19:35.752Z,12.98
2022-11-09T12:20:32.886Z,12.99
2022-11-09T12:21:33.035Z,12.99
2022-11-09T12:22:32.923Z,12.99
2022-11-09T12:23:32.891Z,13.01
2022-11-09T12:24:32.830Z,13.03
2022-11-09T12:25:32.888Z,13.02
2022-11-09T12:26:32.824Z,13.02
2022-11-09T12:27:33.536Z,13.04
2022-11-09T12:28:32.849Z,13.10
2022-11-09T12:29:32.813Z,13.17
2022-11-09T12:30:32.772Z,13.26
2022-11-09T12:31:32.767Z,13.34
2022-11-09T12:32:32.759Z,13.41
2022-11-09T12:33:35.613Z,13.46
2022-11-09T12:34:32.747Z,13.48
2022-11-09T12:35:32.724Z,13.46
2022-11-09T12:36:32.780Z,13.44
2022-11-09T12:37:32.761Z,13.45
2022-11-09T12:38:32.738Z,13.45
2022-11-09T12:39:32.697Z,13.45
2022-11-09T12:40:32.690Z,13.45
2022-11-09T12:41:32.657Z,13.47
2022-11-09T12:42:32.649Z,13.48
2022-11-09T12:43:32.689Z,13.52
2022-11-09T12:44:32.654Z,13.58
2022-11-09T12:45:32.648Z,13.68
2022-11-09T12:46:32.616Z,13.79
2022-11-09T12:47:32.617Z,13.87
2022-11-09T12:48:32.611Z,13.89
2022-11-09T12:49:32.648Z,13.85
2022-11-09T12:50:32.581Z,13.82
2022-11-09T12:51:32.571Z,13.78
2022-11-09T12:52:32.555Z,13.71
2022-11-09T12:53:32.595Z,13.64
2022-11-09T12:54:32.534Z,13.56
2022-11-09T12:55:32.516Z,13.50
2022-11-09T12:56:32.512Z,13.47
2022-11-09T12:57:32.518Z,13.45
2022-11-09T12:58:32.628Z,13.46
2022-11-09T12:59:32.494Z,13.48
2022-11-09T13:00:32.478Z,13.47
2022-11-09T13:01:32.532Z,13.46
2022-11-09T13:02:32.454Z,13.48
2022-11-09T13:03:32.488Z,13.53
2022-11-09T13:04:32.482Z,13.78
2022-11-09T13:05:32.471Z,14.13
2022-11-09T13:06:32.494Z,14.33
2022-11-09T13:07:32.412Z,14.36
2022-11-09T13:08:32.464Z,14.29
2022-11-09T13:09:43.958Z,14.21
2022-11-09T13:10:32.436Z,14.13
2022-11-09T13:11:32.366Z,14.08
2022-11-09T13:12:32.417Z,14.04